createdAt,value
2019-03-28T00:01:46.130Z,44.82
2019-03-28T00:06:48.096Z,45.56
2019-03-28T00:11:49.847Z,46.18
2019-03-28T00:16:51.586Z,48.15
2019-03-28T00:21:54.231Z,48.37
2019-03-28T00:26:55.992Z,49.24
2019-03-28T00:31:57.725Z,48.78
2019-03-28T00:36:59.484Z,49.25
2019-03-28T00:42:01.194Z,49.39
2019-03-28T00:47:03.023Z,49.13
2019-03-28T00:52:04.845Z,48.87
2019-03-28T00:57:06.614Z,47.94
2019-03-28T01:02:08.373Z,48.51
2019-03-28T01:07:10.119Z,48.90
2019-03-28T01:12:11.830Z,48.74
2019-03-28T01:17:13.598Z,48.93
2019-03-28T01:22:15.351Z,49.52
2019-03-28T01:27:18.048Z,50.48
2019-03-28T01:32:19.785Z,50.73
2019-03-28T01:37:21.542Z,50.13
2019-03-28T01:42:23.262Z,50.98
2019-03-28T01:47:24.972Z,50.98
2019-03-28T01:52:26.788Z,52.18
2019-03-28T01:57:28.566Z,53.01
2019-03-28T02:02:30.319Z,53.74
2019-03-28T02:07:32.070Z,53.61
2019-03-28T02:12:33.779Z,53.84
2019-03-28T02:17:35.514Z,54.12
2019-03-28T02:22:37.265Z,53.22
2019-03-28T02:27:39.826Z,54.73
2019-03-28T02:32:41.556Z,55.25
2019-03-28T02:37:43.346Z,54.21
2019-03-28T02:42:45.056Z,53.32
2019-03-28T02:47:46.759Z,54.34
2019-03-28T02:52:48.463Z,55.09
2019-03-28T02:57:50.215Z,53.80
2019-03-28T03:02:52.051Z,52.30
2019-03-28T03:07:53.856Z,52.14
2019-03-28T03:12:55.606Z,51.45
2019-03-28T03:17:57.304Z,51.91
2019-03-28T03:22:59.012Z,51.96
2019-03-28T03:28:00.892Z,50.20
2019-03-28T03:33:02.614Z,51.06
2019-03-28T03:38:05.330Z,52.41
2019-03-28T03:43:07.071Z,54.15
2019-03-28T03:48:08.800Z,52.84
2019-03-28T03:53:10.563Z,52.40
2019-03-28T03:58:16.085Z,52.32
2019-03-28T04:03:15.878Z,52.36
2019-03-28T04:08:17.563Z,52.15
2019-03-28T04:13:19.207Z,53.94
2019-03-28T04:18:22.221Z,55.29
2019-03-28T04:23:24.358Z,53.82
2019-03-28T04:28:32.145Z,54.79
2019-03-28T04:33:29.703Z,56.60
2019-03-28T04:38:31.368Z,57.28
2019-03-28T04:43:33.106Z,55.91
2019-03-28T04:48:34.790Z,56.00
2019-03-28T04:53:37.524Z,59.49
2019-03-28T04:58:44.788Z,56.44
2019-03-28T05:03:42.992Z,58.83
2019-03-28T05:08:44.753Z,57.62
2019-03-28T05:13:46.519Z,57.34
2019-03-28T05:18:48.238Z,53.64
2019-03-28T05:23:49.953Z,55.34
2019-03-28T05:28:57.400Z,55.50
2019-03-28T05:33:55.334Z,54.88
2019-03-28T05:38:57.121Z,53.18
2019-03-28T05:43:58.892Z,50.05
2019-03-28T05:49:00.623Z,46.97
2019-03-28T05:54:02.347Z,46.20
2019-03-28T05:59:10.697Z,46.56
2019-03-28T06:04:08.334Z,44.64
2019-03-28T06:09:10.180Z,43.35
2019-03-28T06:14:11.892Z,42.97
2019-03-28T06:19:13.562Z,42.09
2019-03-28T06:24:15.249Z,41.64
2019-03-28T06:29:23.872Z,41.31
2019-03-28T06:34:20.591Z,40.19
2019-03-28T06:39:22.313Z,39.62
2019-03-28T06:44:24.024Z,37.49
2019-03-28T06:49:25.809Z,36.08
2019-03-28T06:54:27.582Z,36.07
2019-03-28T06:59:37.201Z,35.95
2019-03-28T07:04:32.995Z,35.00
2019-03-28T07:09:34.666Z,34.42
2019-03-28T07:14:36.432Z,33.45
2019-03-28T07:19:38.182Z,33.40
2019-03-28T07:24:39.945Z,33.36
2019-03-28T07:29:50.915Z,34.26
2019-03-28T07:34:45.427Z,34.17
2019-03-28T07:39:47.220Z,33.84
2019-03-28T07:44:48.946Z,35.01
2019-03-28T07:49:51.830Z,36.60
2019-03-28T07:54:53.581Z,36.23
2019-03-28T08:00:03.977Z,38.79
2019-03-28T08:05:01.351Z,40.65
2019-03-28T08:10:06.438Z,41.78
2019-03-28T08:15:09.351Z,43.53
2019-03-28T08:20:11.062Z,44.39
2019-03-28T08:25:13.773Z,42.85
2019-03-28T08:30:18.687Z,43.43
2019-03-28T08:35:18.973Z,44.35
2019-03-28T08:40:32.954Z,44.56
2019-03-28T08:45:34.706Z,45.44
2019-03-28T08:50:36.521Z,44.24
2019-03-28T08:55:38.233Z,45.73
2019-03-28T09:00:51.567Z,47.17
2019-03-28T09:05:44.773Z,46.93
2019-03-28T09:10:46.529Z,46.03
2019-03-28T09:15:50.642Z,46.59
2019-03-28T09:20:52.452Z,46.69
2019-03-28T09:25:54.174Z,45.40
2019-03-28T09:30:55.962Z,44.32
2019-03-28T09:35:57.680Z,43.56
2019-03-28T09:40:59.457Z,40.93
2019-03-28T09:46:02.020Z,40.43
2019-03-28T09:51:03.869Z,39.60
2019-03-28T09:56:05.639Z,38.52
2019-03-28T10:01:07.354Z,37.18
2019-03-28T10:06:09.104Z,36.91
2019-03-28T10:11:10.831Z,36.25
2019-03-28T10:16:13.560Z,37.33
2019-03-28T10:21:15.328Z,36.10
2019-03-28T10:26:17.078Z,35.64
2019-03-28T10:31:18.950Z,34.92
2019-03-28T10:36:20.685Z,34.90
2019-03-28T10:41:25.631Z,36.51
2019-03-28T10:46:25.990Z,36.88
2019-03-28T10:51:27.729Z,36.66
2019-03-28T10:56:29.557Z,37.76
2019-03-28T11:01:47.480Z,36.94
2019-03-28T11:06:35.921Z,36.04
2019-03-28T11:11:37.634Z,35.70
2019-03-28T11:16:39.413Z,35.78
2019-03-28T11:21:41.117Z,35.16
2019-03-28T11:26:42.860Z,35.13
2019-03-28T11:31:47.751Z,34.74
2019-03-28T11:36:48.292Z,35.42
2019-03-28T11:41:51.069Z,36.87
2019-03-28T11:46:52.758Z,35.86
2019-03-28T11:51:54.499Z,33.18
2019-03-28T11:56:56.252Z,32.35
2019-03-28T12:02:00.525Z,32.96
2019-03-28T12:07:01.602Z,31.85
2019-03-28T12:12:04.453Z,31.00
2019-03-28T12:17:06.198Z,30.87
2019-03-28T12:22:07.954Z,29.47
2019-03-28T12:27:09.842Z,29.22
2019-03-28T12:32:14.224Z,29.28
2019-03-28T12:37:15.366Z,27.10
2019-03-28T12:42:17.188Z,28.63
2019-03-28T12:47:18.932Z,26.58
2019-03-28T12:52:20.789Z,27.15
2019-03-28T12:57:22.482Z,26.97
2019-03-28T13:02:31.455Z,26.61
2019-03-28T13:07:28.156Z,27.30
2019-03-28T13:12:30.082Z,25.34
2019-03-28T13:17:31.899Z,25.30
2019-03-28T13:22:33.648Z,25.66
2019-03-28T13:27:36.560Z,26.03
2019-03-28T13:32:41.963Z,29.52
2019-03-28T13:37:42.441Z,26.07
2019-03-28T13:42:44.282Z,25.54
2019-03-28T13:47:45.994Z,28.19
2019-03-28T13:52:48.858Z,29.20
2019-03-28T13:57:52.266Z,28.68
2019-03-28T14:02:58.552Z,29.73
2019-03-28T14:07:57.920Z,28.57
2019-03-28T14:13:00.046Z,27.89
2019-03-28T14:18:01.823Z,28.30
2019-03-28T14:23:04.822Z,28.87
2019-03-28T14:28:06.661Z,30.30
2019-03-28T14:33:11.491Z,30.92
2019-03-28T14:38:12.184Z,31.08
2019-03-28T14:43:13.979Z,30.91
2019-03-28T14:48:15.785Z,31.38
2019-03-28T14:53:17.629Z,31.59
2019-03-28T14:58:22.087Z,31.87
2019-03-28T15:03:26.955Z,32.02
2019-03-28T15:08:27.736Z,32.15
2019-03-28T15:13:31.284Z,32.22
2019-03-28T15:18:33.054Z,32.31
2019-03-28T15:23:35.210Z,32.59
2019-03-28T15:28:37.002Z,32.15
2019-03-28T15:33:40.109Z,31.64
2019-03-28T15:38:42.223Z,32.63
2019-03-28T15:43:44.107Z,32.80
2019-03-28T15:48:46.070Z,32.96
2019-03-28T15:53:47.910Z,33.03
2019-03-28T15:58:49.776Z,32.58
2019-03-28T16:03:53.374Z,32.61
2019-03-28T16:08:55.384Z,31.80
2019-03-28T16:13:57.184Z,32.06
2019-03-28T16:19:01.653Z,32.66
2019-03-28T16:24:04.005Z,32.91
2019-03-28T16:29:05.924Z,33.69
2019-03-28T16:34:09.684Z,34.01
2019-03-28T16:39:11.969Z,34.60
2019-03-28T16:44:15.173Z,35.15
2019-03-28T16:49:17.154Z,35.76
2019-03-28T16:54:19.090Z,35.75
2019-03-28T16:59:21.070Z,36.33
2019-03-28T17:04:24.075Z,35.88
2019-03-28T17:09:26.076Z,35.53
2019-03-28T17:14:28.110Z,36.00
2019-03-28T17:19:30.037Z,36.02
2019-03-28T17:24:32.063Z,36.56
2019-03-28T17:42:54.484Z,35.99
2019-03-28T17:47:56.533Z,36.45
2019-03-28T17:53:00.092Z,36.67
2019-03-28T17:58:02.068Z,36.88
2019-03-28T18:03:09.508Z,37.55
2019-03-28T18:08:09.107Z,38.40
2019-03-28T18:13:11.057Z,38.83
2019-03-28T18:18:14.431Z,38.94
2019-03-28T18:23:18.192Z,39.17
2019-03-28T18:28:20.020Z,39.55
2019-03-28T18:33:21.986Z,39.94
2019-03-28T18:38:23.752Z,40.79
2019-03-28T18:43:25.581Z,40.99
2019-03-28T18:48:34.370Z,41.01
2019-03-28T18:53:32.671Z,41.72
2019-03-28T18:58:34.521Z,42.06
2019-03-28T19:03:36.320Z,42.63
2019-03-28T19:08:38.137Z,42.87
2019-03-28T19:13:40.012Z,43.17
2019-03-28T19:18:41.839Z,43.78
2019-03-28T19:23:43.584Z,45.61
2019-03-28T19:28:45.476Z,44.93
2019-03-28T19:33:47.332Z,45.31
2019-03-28T19:38:49.440Z,44.54
2019-03-28T19:43:52.175Z,44.68
2019-03-28T19:48:53.947Z,44.20
2019-03-28T19:53:55.889Z,44.56
2019-03-28T19:58:59.140Z,46.32
2019-03-28T20:04:01.156Z,46.25
2019-03-28T20:09:15.721Z,45.84
2019-03-28T20:14:08.978Z,44.89
2019-03-28T20:19:10.855Z,46.71
2019-03-28T20:24:12.659Z,46.87
2019-03-28T20:29:14.684Z,46.16
2019-03-28T20:34:16.532Z,45.90
2019-03-28T20:39:18.538Z,46.15
2019-03-28T20:44:20.634Z,46.13
2019-03-28T20:49:22.552Z,46.92
2019-03-28T20:54:24.424Z,47.14
2019-03-28T20:59:26.334Z,47.12
2019-03-28T21:04:31.699Z,47.16
2019-03-28T21:09:31.949Z,46.71
2019-03-28T21:14:33.793Z,47.20
2019-03-28T21:19:35.577Z,47.37
2019-03-28T21:24:37.420Z,47.22
2019-03-28T21:29:48.730Z,48.00
2019-03-28T21:34:45.180Z,48.52
2019-03-28T21:39:47.054Z,48.82
2019-03-28T21:44:49.099Z,48.61
2019-03-28T21:49:51.001Z,48.52
2019-03-28T21:54:52.838Z,48.38
2019-03-28T21:59:54.702Z,49.26
2019-03-28T22:04:56.504Z,48.57
2019-03-28T22:09:58.407Z,49.06
2019-03-28T22:15:00.503Z,48.40
2019-03-28T22:20:05.098Z,49.40
2019-03-28T22:25:06.896Z,50.53
2019-03-28T22:30:08.633Z,51.28
2019-03-28T22:35:10.588Z,51.41
2019-03-28T22:40:12.491Z,51.29
2019-03-28T22:45:14.255Z,52.11
2019-03-28T22:50:16.035Z,53.00
2019-03-28T22:55:17.867Z,53.13
2019-03-28T23:00:21.894Z,53.06
2019-03-28T23:05:25.563Z,53.20
2019-03-28T23:10:27.281Z,53.28
2019-03-28T23:15:29.080Z,52.85
2019-03-28T23:20:33.611Z,53.59
2019-03-28T23:25:34.546Z,52.87
2019-03-28T23:30:36.275Z,52.55
2019-03-28T23:35:38.031Z,52.81
2019-03-28T23:40:39.778Z,53.58
2019-03-28T23:45:41.588Z,55.77
2019-03-28T23:50:43.408Z,55.09
2019-03-28T23:55:45.192Z,55.40
